KNEL

Details ICAO KNEL (NEL)
Name LAKEHURST NAES
Region United States
Timezone America/New_York (UTC-5.0)
Plans Departing 1
Arriving 4
Stats Elevation 103 ft / 31 m (AMSL)
Location 40.035103° -74.352144°
Runways 2
Magnetic Variation 12.564° W
Sunrise 2017-12-12 12:11:38 UTC / 2017-12-12 07:11:38 Local
Sunset 2017-12-12 21:33:42 UTC / 2017-12-12 16:33:42 Local
Advertisement - Login to hide

Runways

ID Width Length Bearing (true) Bearing (mag) Surface Threshold Offset Overrun Length
06 150 ft / 46 m 4,998 ft / 1,524 m 50.40° 62.96° Asphalt 0 ft / 0 m 250 ft / 76 m
15 150 ft / 46 m 5,002 ft / 1,524 m 140.61° 153.17° Asphalt 0 ft / 0 m 200 ft / 61 m
24 150 ft / 46 m 4,998 ft / 1,524 m 230.41° 242.97° Asphalt 0 ft / 0 m 200 ft / 61 m
33 150 ft / 46 m 5,002 ft / 1,524 m 320.62° 333.18° Asphalt 0 ft / 0 m 200 ft / 61 m

Map

Weather


0- 5 10 15 20 25 30 35+ Temperature / ° C

Clouds and Precipitation
Forecast for 2017-12-13 00:00 UTC. Updated 19 minutes ago

Ground ~20,000 ft ~40,000 ft Winds

METAR

KNEL 121900Z AUTO 29012G17KT 10SM FEW037 BKN050 BKN065 08/00 A2944 RMK AO2 SLP968 T00780000 PNO $

TAF

Not found

Frequencies

Ground 118.37 MHz GND
Approach 124.15 MHz MC GUIRE APP/DEP
Tower 127.77 MHz TWR
Warning: Do not use this data for real-world aviation or navigation. No guarantee of current accuracy is given.